Time;durP1;ratioP1;P1;durP2;ratioP2;P2;SDS_P1;SDS_P2;PMS_P1;PMS_P2;Temp;Humidity;BMP_temperature;BMP_pressure;BME280_temperature;BME280_humidity;BME280_pressure;Samples;Min_cycle;Max_cycle;Signal;HPM_P1;HPM_P2
2022/07/31 00:00:51;;;;;;;7.33;6.83;;;25.00;50.90;;;;;;5056643;28;20464;-86
2022/07/31 00:03:20;;;;;;;8.07;7.20;;;25.10;50.70;;;;;;5048882;28;20565;-89
2022/07/31 00:05:47;;;;;;;7.40;6.70;;;25.10;50.50;;;;;;5048292;28;20860;-87
2022/07/31 00:08:14;;;;;;;7.70;6.80;;;25.10;50.40;;;;;;5063205;28;20451;-86
2022/07/31 00:10:41;;;;;;;8.93;7.37;;;25.10;50.50;;;;;;5061298;28;20459;-85
2022/07/31 00:13:07;;;;;;;8.27;7.47;;;25.10;50.30;;;;;;5061579;28;20449;-93
2022/07/31 00:15:34;;;;;;;7.40;6.80;;;24.70;51.00;;;;;;5042395;28;20467;-86
2022/07/31 00:18:01;;;;;;;7.20;6.60;;;24.50;51.60;;;;;;5058931;28;20471;-89
2022/07/31 00:20:30;;;;;;;7.47;6.87;;;24.50;50.80;;;;;;5058877;28;20466;-88
2022/07/31 00:22:57;;;;;;;7.87;6.30;;;24.50;50.60;;;;;;5062406;28;20465;-86
2022/07/31 00:25:24;;;;;;;13.23;7.30;;;24.50;50.60;;;;;;5061509;28;20503;-86
2022/07/31 00:27:51;;;;;;;8.30;7.60;;;24.50;50.80;;;;;;5063477;28;20556;-86
2022/07/31 00:30:18;;;;;;;7.77;7.10;;;24.50;51.30;;;;;;5059495;28;20975;-88
2022/07/31 00:32:45;;;;;;;7.57;6.87;;;24.50;51.80;;;;;;5056690;28;20437;-86
2022/07/31 00:35:13;;;;;;;8.20;7.40;;;24.50;52.10;;;;;;5059891;28;20476;-88
2022/07/31 00:37:43;;;;;;;8.30;7.57;;;24.50;52.00;;;;;;5034126;28;20444;-89
2022/07/31 00:40:14;;;;;;;8.60;7.80;;;24.00;53.00;;;;;;5045619;28;20461;-87
2022/07/31 00:42:41;;;;;;;9.00;8.17;;;23.30;54.30;;;;;;5057669;28;20460;-89
2022/07/31 00:45:10;;;;;;;8.20;7.50;;;23.10;54.90;;;;;;5057776;28;20893;-88
2022/07/31 00:47:37;;;;;;;8.70;7.80;;;23.30;54.80;;;;;;5063052;28;20449;-86
2022/07/31 00:50:04;;;;;;;9.80;7.37;;;23.60;54.30;;;;;;5047771;28;20814;-85
2022/07/31 00:52:31;;;;;;;8.47;7.60;;;23.80;53.70;;;;;;5057350;28;20448;-89
2022/07/31 00:55:00;;;;;;;8.53;7.77;;;24.00;53.30;;;;;;5057692;28;20480;-87
2022/07/31 00:57:27;;;;;;;8.40;7.63;;;24.10;53.20;;;;;;5059829;28;20445;-88
2022/07/31 00:59:54;;;;;;;9.17;8.10;;;24.20;52.90;;;;;;5061815;28;20445;-86
2022/07/31 01:02:21;;;;;;;8.60;7.80;;;24.20;52.70;;;;;;5033804;28;20478;-85
2022/07/31 01:04:48;;;;;;;9.23;8.40;;;24.30;52.70;;;;;;5043363;28;20492;-88
2022/07/31 01:07:15;;;;;;;8.40;7.60;;;24.30;52.60;;;;;;5058180;28;21165;-86
2022/07/31 01:09:43;;;;;;;7.87;7.17;;;24.40;52.60;;;;;;5029006;28;20445;-86
2022/07/31 01:12:18;;;;;;;8.27;7.57;;;24.40;52.20;;;;;;5045725;28;20536;-88
2022/07/31 01:14:48;;;;;;;9.40;8.50;;;24.40;52.10;;;;;;5060753;28;20464;-88
2022/07/31 01:17:17;;;;;;;9.93;8.57;;;24.40;52.30;;;;;;5054525;28;21024;-89
2022/07/31 01:19:46;;;;;;;9.33;8.53;;;24.40;52.30;;;;;;5045096;28;20463;-86
2022/07/31 01:22:45;;;;;;;9.33;8.53;;;24.50;52.60;;;;;;5061001;28;20473;-87
2022/07/31 01:25:22;;;;;;;9.30;7.73;;;24.40;52.60;;;;;;5043383;28;20881;-86
2022/07/31 01:28:13;;;;;;;9.10;8.20;;;24.40;53.00;;;;;;5064122;28;20439;-92
2022/07/31 01:30:48;;;;;;;8.77;8.03;;;24.40;53.10;;;;;;5049062;28;20467;-87
2022/07/31 01:33:19;;;;;;;9.87;9.07;;;24.30;53.10;;;;;;5040655;28;20856;-86
2022/07/31 01:35:52;;;;;;;8.97;8.07;;;24.30;53.90;;;;;;5060754;28;20511;-87
2022/07/31 01:38:24;;;;;;;9.00;8.20;;;24.20;53.90;;;;;;5065193;28;20471;-87
2022/07/31 01:40:57;;;;;;;9.27;8.37;;;24.20;53.20;;;;;;5036589;28;21164;-86
2022/07/31 01:43:29;;;;;;;8.77;7.97;;;24.20;53.40;;;;;;5050508;28;20472;-87
2022/07/31 01:46:00;;;;;;;11.40;9.30;;;24.20;53.30;;;;;;5042697;28;20472;-85
2022/07/31 01:48:28;;;;;;;8.73;7.93;;;24.20;53.40;;;;;;5048814;28;21080;-86
2022/07/31 01:51:00;;;;;;;9.50;8.60;;;24.10;53.50;;;;;;5059331;28;20452;-90
2022/07/31 01:53:30;;;;;;;8.73;8.03;;;24.00;53.80;;;;;;5044027;28;20444;-89
2022/07/31 01:55:59;;;;;;;9.13;8.33;;;24.00;53.30;;;;;;5045512;28;20903;-85
2022/07/31 01:58:29;;;;;;;9.27;8.43;;;24.00;53.30;;;;;;5040589;28;20477;-86
2022/07/31 02:01:04;;;;;;;11.47;8.80;;;24.00;53.60;;;;;;5047950;28;21095;-88
2022/07/31 02:03:33;;;;;;;9.27;8.47;;;24.00;53.70;;;;;;5049025;28;20464;-91
2022/07/31 02:06:02;;;;;;;9.43;8.60;;;24.00;53.30;;;;;;5044092;28;20571;-86
2022/07/31 02:08:31;;;;;;;9.10;8.20;;;24.10;53.40;;;;;;5062512;28;20447;-89
2022/07/31 02:11:00;;;;;;;9.83;8.97;;;24.10;53.50;;;;;;5057096;28;20947;-88
2022/07/31 02:13:28;;;;;;;10.33;8.40;;;24.00;54.20;;;;;;5053759;28;20453;-84
2022/07/31 02:15:57;;;;;;;9.33;8.40;;;23.90;54.40;;;;;;5063998;28;20477;-84
2022/07/31 02:18:27;;;;;;;9.13;8.13;;;23.90;54.50;;;;;;5056471;28;20484;-84
2022/07/31 02:21:15;;;;;;;10.70;7.80;;;23.90;54.80;;;;;;5065052;28;20457;-85
2022/07/31 02:23:42;;;;;;;8.90;8.10;;;23.90;54.80;;;;;;5044960;28;20577;-89
2022/07/31 02:26:09;;;;;;;9.40;8.50;;;23.90;54.40;;;;;;5054288;28;20484;-85
2022/07/31 02:28:40;;;;;;;8.60;7.80;;;23.90;54.30;;;;;;5047497;28;20456;-84
2022/07/31 02:31:11;;;;;;;9.50;8.50;;;23.90;54.40;;;;;;5045785;28;20823;-84
2022/07/31 02:33:43;;;;;;;9.73;8.47;;;23.90;54.40;;;;;;5039490;28;20491;-86
2022/07/31 02:36:12;;;;;;;10.50;8.67;;;23.90;54.70;;;;;;5044356;28;21234;-85
2022/07/31 02:38:40;;;;;;;10.33;8.60;;;23.90;55.00;;;;;;5043561;28;20464;-86
2022/07/31 02:47:44;;;;;;;9.27;8.20;;;23.80;55.40;;;;;;5056593;28;20455;-84
2022/07/31 02:50:17;;;;;;;9.93;9.03;;;23.80;55.10;;;;;;5057961;28;20541;-87
2022/07/31 02:52:45;;;;;;;9.63;8.90;;;23.80;55.10;;;;;;5046926;28;20454;-86
2022/07/31 02:55:13;;;;;;;9.90;8.90;;;23.80;55.10;;;;;;5043646;28;21054;-84
2022/07/31 02:57:40;;;;;;;9.63;8.83;;;23.80;55.30;;;;;;5056809;28;20829;-83
2022/07/31 03:00:21;;;;;;;10.00;8.97;;;23.80;55.30;;;;;;5047122;28;20453;-84
2022/07/31 03:02:49;;;;;;;9.90;9.00;;;23.80;55.10;;;;;;5032952;28;20896;-84
2022/07/31 03:05:18;;;;;;;17.03;9.07;;;23.80;55.10;;;;;;5056675;28;20494;-85
2022/07/31 03:07:46;;;;;;;9.60;8.60;;;23.80;55.00;;;;;;5045170;28;21145;-88
2022/07/31 03:10:13;;;;;;;9.57;8.57;;;23.80;55.00;;;;;;5038379;28;20464;-84
2022/07/31 03:12:55;;;;;;;10.23;9.03;;;23.80;55.10;;;;;;5060514;28;20451;-84
2022/07/31 03:15:25;;;;;;;9.80;8.83;;;23.80;54.90;;;;;;5040198;28;20480;-88
2022/07/31 03:17:54;;;;;;;9.30;8.27;;;23.80;54.70;;;;;;5037182;28;20492;-86
2022/07/31 03:20:33;;;;;;;10.37;8.10;;;23.80;54.70;;;;;;5039996;28;21121;-86
2022/07/31 03:23:01;;;;;;;9.33;8.50;;;23.80;54.60;;;;;;5071200;28;20500;-86
2022/07/31 03:25:29;;;;;;;8.90;8.10;;;23.90;54.60;;;;;;5061621;28;20560;-85
2022/07/31 03:27:56;;;;;;;9.23;8.43;;;23.80;54.60;;;;;;5043609;28;20475;-84
2022/07/31 03:30:24;;;;;;;11.20;8.90;;;23.80;54.50;;;;;;5043024;28;20460;-84
2022/07/31 03:32:54;;;;;;;10.37;9.47;;;23.80;54.50;;;;;;5057190;28;20498;-85
2022/07/31 03:35:22;;;;;;;8.70;8.00;;;23.80;54.60;;;;;;5063366;28;20480;-85
2022/07/31 03:37:50;;;;;;;9.17;8.23;;;23.70;54.50;;;;;;5044667;28;20433;-85
2022/07/31 03:40:17;;;;;;;12.13;9.07;;;23.70;54.40;;;;;;5072440;28;20484;-86
2022/07/31 03:42:44;;;;;;;9.37;8.57;;;23.70;54.40;;;;;;5068343;28;20508;-85
2022/07/31 03:45:13;;;;;;;9.80;8.90;;;23.70;54.40;;;;;;5041034;28;20978;-85
2022/07/31 03:47:40;;;;;;;9.10;8.20;;;23.70;54.60;;;;;;5045631;28;20822;-86
2022/07/31 03:50:08;;;;;;;9.80;8.80;;;23.70;54.60;;;;;;5063642;28;20450;-88
2022/07/31 03:52:36;;;;;;;9.80;8.90;;;23.70;54.60;;;;;;5041818;28;20448;-91
2022/07/31 03:55:06;;;;;;;10.03;9.03;;;23.70;54.70;;;;;;5060698;28;20565;-84
2022/07/31 04:05:49;;;;;;;8.27;7.53;;;23.60;54.80;;;;;;5054254;28;20455;-87
2022/07/31 04:08:16;;;;;;;8.73;7.93;;;23.50;55.10;;;;;;5045188;28;20442;-84
2022/07/31 04:10:45;;;;;;;10.67;8.33;;;23.50;55.00;;;;;;5058917;28;21014;-85
2022/07/31 04:13:15;;;;;;;8.73;7.93;;;23.60;54.90;;;;;;5060370;28;20461;-84
2022/07/31 04:22:14;;;;;;;11.83;8.20;;;23.70;55.00;;;;;;5064902;28;20487;-84
2022/07/31 04:24:41;;;;;;;10.93;8.13;;;23.60;55.20;;;;;;5041890;28;20477;-87
2022/07/31 04:27:39;;;;;;;8.93;7.60;;;23.60;55.00;;;;;;5057085;28;20456;-84
2022/07/31 04:30:07;;;;;;;8.17;7.43;;;23.60;55.00;;;;;;5049587;28;20459;-84
2022/07/31 04:44:28;;;;;;;7.83;7.20;;;23.50;55.20;;;;;;5064357;28;20472;-88
2022/07/31 04:46:59;;;;;;;8.30;7.67;;;23.40;55.40;;;;;;5045695;28;20460;-89
2022/07/31 04:49:26;;;;;;;8.27;7.47;;;23.50;55.20;;;;;;5065469;28;20460;-84
2022/07/31 04:52:18;;;;;;;9.03;8.23;;;23.50;55.30;;;;;;5026449;28;20854;-87
2022/07/31 04:54:48;;;;;;;7.40;6.73;;;23.60;55.20;;;;;;5051359;28;20492;-84
2022/07/31 05:01:24;;;;;;;9.60;8.60;;;23.60;55.50;;;;;;5062962;28;20435;-84
2022/07/31 05:03:51;;;;;;;10.00;9.10;;;23.70;55.00;;;;;;5056077;28;20468;-84
2022/07/31 05:06:19;;;;;;;8.97;8.20;;;23.70;55.50;;;;;;5029832;28;20444;-85
2022/07/31 05:08:46;;;;;;;11.73;9.43;;;23.70;55.50;;;;;;5046095;28;20463;-85
2022/07/31 05:11:23;;;;;;;8.70;8.00;;;23.50;56.20;;;;;;5032608;28;20546;-89
2022/07/31 05:13:51;;;;;;;10.00;9.10;;;23.30;56.40;;;;;;5060017;28;20847;-85
2022/07/31 05:16:21;;;;;;;10.30;9.40;;;23.50;56.60;;;;;;5045847;28;20473;-84
2022/07/31 05:25:13;;;;;;;10.00;9.00;;;23.30;56.70;;;;;;5042121;28;20546;-90
2022/07/31 05:28:31;;;;;;;9.73;8.43;;;23.50;56.50;;;;;;5060102;28;20481;-84
2022/07/31 05:30:59;;;;;;;10.30;9.50;;;23.60;56.50;;;;;;5040308;28;20453;-88
2022/07/31 05:33:28;;;;;;;9.17;8.37;;;23.60;56.10;;;;;;5032745;28;20461;-84
2022/07/31 05:35:58;;;;;;;11.30;8.70;;;23.60;56.10;;;;;;5056951;28;20473;-83
2022/07/31 05:38:25;;;;;;;9.30;7.63;;;23.70;56.20;;;;;;5055393;28;20485;-88
2022/07/31 05:41:09;;;;;;;9.63;8.83;;;23.80;56.10;;;;;;5056935;28;20444;-88
2022/07/31 05:48:30;;;;;;;10.57;9.50;;;22.90;58.30;;;;;;5060090;28;20429;-88
2022/07/31 05:50:58;;;;;;;9.70;8.80;;;23.20;57.70;;;;;;5059726;28;20449;-84
2022/07/31 05:53:26;;;;;;;10.50;9.60;;;23.30;57.40;;;;;;5043151;28;20803;-87
2022/07/31 05:56:16;;;;;;;9.20;8.30;;;23.30;57.20;;;;;;5040128;28;20437;-88
2022/07/31 05:58:48;;;;;;;9.40;8.37;;;23.20;57.50;;;;;;5055488;28;20464;-91
2022/07/31 06:01:16;;;;;;;9.37;8.47;;;23.20;57.30;;;;;;5075331;28;20515;-84
2022/07/31 06:03:43;;;;;;;9.07;8.27;;;23.30;57.00;;;;;;5055863;28;20460;-84
2022/07/31 06:06:19;;;;;;;10.93;9.13;;;23.40;57.10;;;;;;5039995;28;20536;-86
2022/07/31 06:08:46;;;;;;;10.40;9.30;;;23.60;56.30;;;;;;5055919;28;20798;-84
2022/07/31 06:11:13;;;;;;;12.83;8.53;;;23.50;55.90;;;;;;5059261;28;20457;-84
2022/07/31 06:13:42;;;;;;;9.30;8.33;;;23.60;56.10;;;;;;5038098;28;20507;-85
2022/07/31 06:16:18;;;;;;;9.07;8.20;;;23.70;56.10;;;;;;5055420;28;20448;-86
2022/07/31 06:18:45;;;;;;;11.20;8.67;;;23.90;55.60;;;;;;5061992;28;20446;-86
2022/07/31 06:21:12;;;;;;;11.20;9.00;;;23.70;55.70;;;;;;5040953;28;20510;-85
2022/07/31 06:23:40;;;;;;;11.20;9.57;;;23.70;55.90;;;;;;5042206;28;20480;-88
2022/07/31 06:26:20;;;;;;;10.00;9.10;;;24.00;55.40;;;;;;5043144;28;20445;-86
2022/07/31 06:28:47;;;;;;;9.90;9.00;;;24.00;55.10;;;;;;5053673;28;20445;-85
2022/07/31 06:31:18;;;;;;;11.10;10.00;;;24.00;55.50;;;;;;5054590;28;20976;-86
2022/07/31 06:33:46;;;;;;;10.73;9.73;;;24.10;55.60;;;;;;5052778;28;20456;-84
2022/07/31 06:36:14;;;;;;;10.27;9.20;;;24.40;54.80;;;;;;5059456;28;20465;-85
2022/07/31 06:38:49;;;;;;;10.10;9.20;;;24.50;54.40;;;;;;5029562;28;20841;-90
2022/07/31 06:41:46;;;;;;;16.00;9.40;;;24.70;54.40;;;;;;5042719;28;20460;-87
2022/07/31 06:44:49;;;;;;;9.63;8.63;;;24.50;54.40;;;;;;5051204;28;20512;-86
2022/07/31 06:47:51;;;;;;;9.90;8.60;;;24.40;54.90;;;;;;5057475;28;20458;-85
2022/07/31 06:50:49;;;;;;;13.57;8.50;;;24.30;55.40;;;;;;5053649;28;20584;-85
2022/07/31 06:53:32;;;;;;;10.23;9.10;;;24.50;55.10;;;;;;5024819;28;20836;-84
2022/07/31 06:56:00;;;;;;;10.00;8.87;;;24.70;54.40;;;;;;5039264;28;20468;-88
2022/07/31 06:58:27;;;;;;;10.13;8.27;;;24.90;54.00;;;;;;5057157;28;20449;-89
2022/07/31 07:00:54;;;;;;;12.07;8.70;;;25.10;53.70;;;;;;5043907;28;20461;-86
2022/07/31 07:03:21;;;;;;;24.83;9.10;;;25.20;53.40;;;;;;5057111;28;20441;-84
2022/07/31 07:05:48;;;;;;;9.50;8.60;;;25.20;53.20;;;;;;5029133;28;20473;-86
2022/07/31 07:11:33;;;;;;;9.13;8.07;;;25.10;53.80;;;;;;5053988;28;20482;-88
2022/07/31 07:14:00;;;;;;;9.23;8.33;;;25.30;53.60;;;;;;5053428;28;20451;-89
2022/07/31 07:16:27;;;;;;;9.60;7.90;;;25.30;53.40;;;;;;5068265;28;20453;-86
2022/07/31 07:18:56;;;;;;;9.23;8.50;;;25.30;53.30;;;;;;5056617;28;20440;-88
2022/07/31 07:21:23;;;;;;;8.77;7.90;;;25.30;53.30;;;;;;5038558;28;20457;-86
2022/07/31 07:23:50;;;;;;;8.20;7.50;;;25.40;53.10;;;;;;5054879;28;21061;-88
2022/07/31 07:26:17;;;;;;;8.50;7.70;;;25.40;52.80;;;;;;5056157;28;20452;-85
2022/07/31 07:28:45;;;;;;;9.33;7.63;;;25.40;53.20;;;;;;5063001;28;20443;-85
2022/07/31 07:31:12;;;;;;;8.63;7.90;;;25.40;53.20;;;;;;5056192;28;20456;-85
2022/07/31 07:33:40;;;;;;;9.30;8.50;;;25.60;53.00;;;;;;5039344;28;20442;-85
2022/07/31 07:36:07;;;;;;;8.63;7.87;;;25.70;52.60;;;;;;5043188;28;20469;-89
2022/07/31 07:38:34;;;;;;;9.73;6.50;;;25.80;52.50;;;;;;5039877;28;20446;-89
2022/07/31 07:41:01;;;;;;;12.20;8.00;;;25.80;52.20;;;;;;5060924;28;20459;-86
2022/07/31 07:43:28;;;;;;;9.10;8.10;;;25.80;52.30;;;;;;5041662;28;20506;-85
2022/07/31 07:45:57;;;;;;;11.80;8.10;;;25.80;52.30;;;;;;5052885;28;20470;-86
2022/07/31 07:48:25;;;;;;;8.07;7.37;;;25.70;52.00;;;;;;5059927;28;20437;-86
2022/07/31 07:51:12;;;;;;;8.27;7.57;;;25.60;52.50;;;;;;5042491;28;20430;-89
2022/07/31 07:54:08;;;;;;;7.20;6.60;;;25.60;52.40;;;;;;5043301;28;20462;-86
2022/07/31 07:56:35;;;;;;;7.97;7.20;;;25.70;52.50;;;;;;5036997;28;20449;-85
2022/07/31 07:59:23;;;;;;;9.93;7.40;;;25.80;52.20;;;;;;5046364;28;20445;-87
2022/07/31 08:08:49;;;;;;;7.90;6.97;;;26.10;51.70;;;;;;5054992;28;20992;-87
2022/07/31 08:11:39;;;;;;;8.13;6.50;;;25.90;51.40;;;;;;5055399;28;20473;-86
2022/07/31 08:14:11;;;;;;;7.40;6.80;;;25.90;52.10;;;;;;5039523;28;20456;-88
2022/07/31 08:16:57;;;;;;;6.83;6.23;;;26.00;51.70;;;;;;5055271;28;20452;-87
2022/07/31 08:19:25;;;;;;;9.03;6.70;;;26.10;50.90;;;;;;5054539;28;20449;-85
2022/07/31 08:21:52;;;;;;;8.03;7.30;;;26.10;50.60;;;;;;5042396;28;20445;-86
2022/07/31 08:24:19;;;;;;;7.47;6.70;;;26.30;50.70;;;;;;5052340;28;20468;-89
2022/07/31 08:29:32;;;;;;;6.03;5.53;;;26.70;49.90;;;;;;5048827;28;20861;-87
2022/07/31 08:32:14;;;;;;;6.90;5.90;;;26.80;48.50;;;;;;5060347;28;20441;-85
2022/07/31 08:35:03;;;;;;;7.10;5.80;;;26.90;47.10;;;;;;5040340;28;20462;-87
2022/07/31 08:37:30;;;;;;;6.17;5.67;;;27.10;47.40;;;;;;5040246;28;20457;-86
2022/07/31 08:39:58;;;;;;;8.53;5.80;;;27.00;46.10;;;;;;5058036;28;20745;-85
2022/07/31 08:42:25;;;;;;;6.40;5.80;;;27.10;46.60;;;;;;5058575;28;20445;-86
2022/07/31 08:44:53;;;;;;;6.20;5.60;;;27.10;45.40;;;;;;5038882;28;20487;-88
2022/07/31 08:47:27;;;;;;;5.80;5.20;;;27.20;45.40;;;;;;5057773;28;20433;-86
2022/07/31 08:49:56;;;;;;;5.50;4.70;;;27.20;44.10;;;;;;5058708;28;20449;-89
2022/07/31 08:52:27;;;;;;;5.93;5.43;;;27.40;44.60;;;;;;5055892;28;20445;-85
2022/07/31 08:55:08;;;;;;;5.30;4.80;;;27.60;43.80;;;;;;5052288;28;20534;-87
2022/07/31 08:57:36;;;;;;;6.77;4.80;;;27.70;43.80;;;;;;5052514;28;20971;-87
2022/07/31 09:00:06;;;;;;;5.40;4.90;;;27.80;43.60;;;;;;5042791;28;20448;-86
2022/07/31 09:02:33;;;;;;;5.90;4.87;;;27.90;42.60;;;;;;5060348;28;20445;-86
2022/07/31 09:05:20;;;;;;;5.13;4.67;;;27.90;42.80;;;;;;5039177;28;20505;-87
2022/07/31 09:07:49;;;;;;;5.23;4.60;;;27.90;42.30;;;;;;5047285;28;20455;-86
2022/07/31 09:10:24;;;;;;;5.07;4.67;;;28.10;42.80;;;;;;5042223;28;20461;-88
2022/07/31 09:19:35;;;;;;;6.10;5.17;;;28.60;41.20;;;;;;5049674;28;20472;-85
2022/07/31 09:22:19;;;;;;;5.63;5.13;;;28.40;41.60;;;;;;5036800;28;20827;-85
2022/07/31 09:24:48;;;;;;;7.10;5.23;;;28.50;41.60;;;;;;5067891;28;20609;-87
2022/07/31 09:27:16;;;;;;;5.67;5.17;;;28.50;41.60;;;;;;5037398;28;20528;-86
2022/07/31 09:29:45;;;;;;;5.47;4.63;;;28.70;41.60;;;;;;5036019;28;20457;-86
2022/07/31 09:32:25;;;;;;;5.10;4.60;;;29.00;41.20;;;;;;5040835;28;20448;-88
2022/07/31 09:35:14;;;;;;;5.47;4.97;;;29.00;41.00;;;;;;5050419;28;20465;-86
2022/07/31 09:37:46;;;;;;;6.50;4.70;;;29.30;40.20;;;;;;5051520;28;21015;-87
2022/07/31 09:40:38;;;;;;;4.57;4.20;;;29.40;39.00;;;;;;5049302;28;21004;-89
2022/07/31 09:43:24;;;;;;;4.60;4.30;;;29.80;38.90;;;;;;5050463;28;20976;-90
2022/07/31 09:45:57;;;;;;;4.17;3.87;;;30.10;37.50;;;;;;5051059;28;21140;-87
2022/07/31 09:48:24;;;;;;;4.20;3.77;;;30.40;36.60;;;;;;5023571;28;20834;-87
2022/07/31 09:50:55;;;;;;;6.80;4.17;;;30.30;34.70;;;;;;5027751;28;20498;-86
2022/07/31 09:53:23;;;;;;;3.53;3.33;;;30.20;35.30;;;;;;5035968;28;20804;-86
2022/07/31 09:55:57;;;;;;;4.63;4.20;;;30.10;36.00;;;;;;5054028;28;20460;-88
2022/07/31 09:58:24;;;;;;;3.67;3.30;;;30.20;36.00;;;;;;5042172;28;20465;-90
2022/07/31 10:00:53;;;;;;;3.90;3.50;;;30.20;36.00;;;;;;5050941;28;20456;-85
2022/07/31 10:03:20;;;;;;;4.23;3.93;;;30.30;36.70;;;;;;5057069;28;21270;-88
2022/07/31 10:05:49;;;;;;;4.43;4.03;;;30.40;36.70;;;;;;5040457;28;20475;-87
2022/07/31 10:08:17;;;;;;;3.40;3.10;;;30.60;36.30;;;;;;5034568;28;20468;-87
2022/07/31 10:11:05;;;;;;;4.20;3.90;;;30.60;34.40;;;;;;5048738;28;20453;-89
2022/07/31 10:13:46;;;;;;;4.43;3.30;;;30.60;33.30;;;;;;5048744;28;20456;-88
2022/07/31 10:16:13;;;;;;;8.50;3.50;;;30.70;33.30;;;;;;5059031;28;20465;-90
2022/07/31 10:18:59;;;;;;;4.17;3.20;;;31.00;34.10;;;;;;5052809;28;20458;-88
2022/07/31 10:21:40;;;;;;;2.90;2.70;;;31.20;33.20;;;;;;5053454;28;20448;-88
2022/07/31 10:24:19;;;;;;;3.63;3.33;;;31.40;31.70;;;;;;5058477;28;20476;-88
2022/07/31 10:26:48;;;;;;;2.93;2.73;;;31.40;33.50;;;;;;5051975;28;20556;-86
2022/07/31 10:29:16;;;;;;;4.03;3.30;;;31.60;32.20;;;;;;5051153;28;20461;-86
2022/07/31 10:31:45;;;;;;;3.13;2.93;;;31.60;31.30;;;;;;5041884;28;20455;-88
2022/07/31 10:34:13;;;;;;;3.07;2.87;;;32.00;31.90;;;;;;5048887;28;20453;-85
2022/07/31 10:37:05;;;;;;;3.30;3.10;;;32.20;30.10;;;;;;5041138;28;20446;-87
2022/07/31 10:39:56;;;;;;;3.23;2.93;;;32.00;30.30;;;;;;5023282;28;20477;-85
2022/07/31 10:42:41;;;;;;;2.50;2.20;;;31.70;30.00;;;;;;5029925;28;20539;-85
2022/07/31 10:45:10;;;;;;;3.23;2.50;;;31.70;30.30;;;;;;5032132;28;21161;-87
2022/07/31 10:48:01;;;;;;;3.17;2.87;;;31.60;30.90;;;;;;5050208;28;20542;-87
2022/07/31 10:50:48;;;;;;;3.43;3.00;;;31.60;31.60;;;;;;5049298;28;20808;-87
2022/07/31 10:53:24;;;;;;;7.07;2.80;;;31.60;30.70;;;;;;5048322;28;20949;-87
2022/07/31 10:56:09;;;;;;;2.70;2.50;;;31.60;31.20;;;;;;5020510;28;20481;-86
2022/07/31 10:58:59;;;;;;;2.50;2.30;;;31.70;29.90;;;;;;5047098;28;20523;-86
2022/07/31 11:01:53;;;;;;;4.40;2.50;;;32.00;29.10;;;;;;5029470;28;20444;-87
2022/07/31 11:04:42;;;;;;;2.87;2.67;;;32.00;30.00;;;;;;5049723;28;20469;-87
2022/07/31 11:07:18;;;;;;;2.80;2.70;;;32.10;29.20;;;;;;5046010;28;20449;-86
2022/07/31 11:10:15;;;;;;;2.93;2.73;;;31.90;29.40;;;;;;5046855;28;20446;-86
2022/07/31 11:13:03;;;;;;;2.93;2.60;;;32.20;29.80;;;;;;5048716;28;20449;-87
2022/07/31 11:15:51;;;;;;;3.07;2.43;;;32.70;28.80;;;;;;5050763;28;20818;-86
2022/07/31 11:19:03;;;;;;;3.00;2.80;;;32.90;28.30;;;;;;5052614;28;20940;-86
2022/07/31 11:21:34;;;;;;;3.80;2.40;;;33.20;28.30;;;;;;5050839;28;20449;-87
2022/07/31 11:27:02;;;;;;;2.50;2.30;;;33.50;27.60;;;;;;5058835;28;20520;-87
2022/07/31 11:29:31;;;;;;;2.50;2.30;;;33.50;27.30;;;;;;5032511;28;20791;-89
2022/07/31 11:32:14;;;;;;;2.30;2.20;;;33.80;27.20;;;;;;5050745;28;20552;-87
2022/07/31 11:38:50;;;;;;;2.37;2.23;;;33.10;28.10;;;;;;5047539;28;20771;-89
2022/07/31 11:41:20;;;;;;;3.97;2.63;;;32.60;27.90;;;;;;5055385;28;20484;-86
2022/07/31 11:43:48;;;;;;;2.43;2.33;;;32.30;29.60;;;;;;5052112;28;20476;-87
2022/07/31 11:46:24;;;;;;;3.53;2.20;;;32.20;29.10;;;;;;5045493;28;20560;-92
2022/07/31 11:48:53;;;;;;;2.20;2.10;;;32.00;28.90;;;;;;5045517;28;20496;-85
2022/07/31 11:51:20;;;;;;;2.70;2.37;;;31.80;29.30;;;;;;5047663;28;20812;-86
2022/07/31 11:53:48;;;;;;;2.40;1.97;;;32.10;30.40;;;;;;5040534;28;20453;-86
2022/07/31 11:56:16;;;;;;;2.77;2.57;;;32.20;29.50;;;;;;5041653;28;21304;-91
2022/07/31 11:58:48;;;;;;;2.40;2.20;;;32.50;29.40;;;;;;5055177;28;20465;-87
2022/07/31 12:01:15;;;;;;;2.60;2.30;;;32.50;29.80;;;;;;5050489;28;20455;-87
2022/07/31 12:03:42;;;;;;;2.70;2.10;;;32.50;28.80;;;;;;5033404;28;20457;-86
2022/07/31 12:06:37;;;;;;;2.60;2.40;;;32.50;29.30;;;;;;5025824;28;20484;-88
2022/07/31 12:09:04;;;;;;;3.00;2.80;;;32.40;29.50;;;;;;5039503;28;20494;-87
2022/07/31 12:11:31;;;;;;;2.50;2.30;;;32.40;29.80;;;;;;5058790;28;20799;-87
2022/07/31 12:13:59;;;;;;;2.33;2.13;;;32.30;29.80;;;;;;5050282;28;20448;-87
2022/07/31 12:16:26;;;;;;;3.80;2.50;;;32.40;29.80;;;;;;5053642;28;20852;-87
2022/07/31 12:18:55;;;;;;;3.20;2.67;;;32.30;29.50;;;;;;5055405;28;20449;-86
2022/07/31 12:21:30;;;;;;;2.27;2.17;;;32.30;29.80;;;;;;5055014;28;20445;-86
2022/07/31 12:23:59;;;;;;;3.20;2.40;;;32.20;30.00;;;;;;5051239;28;20514;-87
2022/07/31 12:26:28;;;;;;;3.50;2.70;;;32.30;29.80;;;;;;5054930;28;20468;-87
2022/07/31 12:28:59;;;;;;;5.10;2.70;;;32.40;30.10;;;;;;5051742;28;20455;-87
2022/07/31 12:31:27;;;;;;;2.53;2.33;;;32.20;29.30;;;;;;5052284;28;20452;-87
2022/07/31 12:33:54;;;;;;;5.93;2.37;;;32.20;29.70;;;;;;5051637;28;20465;-88
2022/07/31 12:36:21;;;;;;;2.90;2.70;;;32.40;30.30;;;;;;5054764;28;20448;-87
2022/07/31 12:39:00;;;;;;;2.97;2.50;;;32.40;30.10;;;;;;5052914;28;20475;-91
2022/07/31 12:41:27;;;;;;;4.53;2.60;;;32.50;30.20;;;;;;5049763;28;20456;-87
2022/07/31 12:43:54;;;;;;;4.00;2.93;;;32.30;29.70;;;;;;5050398;28;20463;-87
2022/07/31 12:46:22;;;;;;;2.73;2.50;;;32.10;29.40;;;;;;5042165;28;20895;-88
2022/07/31 12:48:49;;;;;;;2.83;2.63;;;32.10;30.80;;;;;;5048441;28;20449;-91
2022/07/31 12:51:18;;;;;;;2.57;2.37;;;32.20;30.20;;;;;;5043683;28;20446;-88
2022/07/31 12:53:45;;;;;;;4.03;2.30;;;32.20;29.00;;;;;;5056359;28;20508;-87
2022/07/31 12:56:45;;;;;;;2.50;2.30;;;32.00;30.00;;;;;;5050426;28;20465;-88
2022/07/31 12:59:19;;;;;;;2.53;2.33;;;31.90;30.10;;;;;;5041103;28;20445;-91
2022/07/31 13:01:50;;;;;;;4.23;2.83;;;32.10;30.00;;;;;;5039530;28;20455;-89
2022/07/31 13:04:17;;;;;;;2.17;2.07;;;32.00;29.70;;;;;;5028900;28;20472;-87
2022/07/31 13:06:47;;;;;;;2.10;2.00;;;32.00;29.70;;;;;;5048435;28;21075;-88
2022/07/31 13:09:17;;;;;;;5.23;2.77;;;32.10;29.70;;;;;;5045270;28;20473;-89
2022/07/31 13:11:46;;;;;;;2.50;2.30;;;32.10;29.70;;;;;;5048618;28;20446;-89
2022/07/31 13:14:16;;;;;;;2.63;2.43;;;32.10;29.80;;;;;;5049642;28;20453;-90
2022/07/31 13:16:53;;;;;;;3.70;2.77;;;32.00;29.60;;;;;;5022892;28;20450;-87
2022/07/31 13:19:24;;;;;;;5.43;2.37;;;32.20;29.20;;;;;;5034025;28;20441;-89
2022/07/31 13:21:59;;;;;;;2.40;2.20;;;32.40;29.30;;;;;;5048036;28;20948;-87
2022/07/31 13:24:52;;;;;;;2.80;2.60;;;32.40;29.10;;;;;;5047789;28;20530;-87
2022/07/31 13:27:25;;;;;;;2.60;2.40;;;32.40;30.00;;;;;;5044395;28;20492;-88
2022/07/31 13:29:54;;;;;;;2.43;2.10;;;32.40;29.40;;;;;;5049232;28;20551;-90
2022/07/31 13:32:20;;;;;;;2.60;2.40;;;32.40;29.80;;;;;;5047861;28;20445;-92
2022/07/31 13:34:53;;;;;;;2.70;2.50;;;32.60;29.20;;;;;;5031083;28;20480;-90
2022/07/31 13:37:20;;;;;;;2.10;2.00;;;33.00;29.20;;;;;;5049326;28;20458;-87
2022/07/31 13:46:27;;;;;;;2.20;2.00;;;33.00;28.20;;;;;;5036504;28;20457;-91
2022/07/31 13:49:01;;;;;;;2.63;2.40;;;32.90;28.30;;;;;;5024518;28;20453;-87
2022/07/31 13:51:32;;;;;;;2.40;2.30;;;33.00;28.60;;;;;;5048710;28;20468;-87
2022/07/31 13:53:59;;;;;;;2.23;2.13;;;33.20;29.00;;;;;;5050687;28;21497;-87
2022/07/31 13:56:26;;;;;;;2.40;2.20;;;33.10;28.30;;;;;;5049029;28;20449;-87
2022/07/31 13:58:55;;;;;;;2.50;2.30;;;33.20;28.50;;;;;;5051287;28;20460;-87
2022/07/31 14:01:22;;;;;;;2.77;2.50;;;33.50;28.50;;;;;;5048493;28;20465;-89
2022/07/31 14:03:49;;;;;;;2.70;2.50;;;33.40;28.10;;;;;;5051158;28;20446;-87
2022/07/31 14:06:18;;;;;;;2.77;2.20;;;33.50;28.60;;;;;;5056588;28;20461;-91
2022/07/31 14:08:45;;;;;;;2.40;2.30;;;33.30;28.60;;;;;;5050815;28;20458;-91
2022/07/31 14:11:12;;;;;;;3.00;2.70;;;33.30;28.80;;;;;;5033195;28;20454;-87
2022/07/31 14:13:39;;;;;;;3.10;2.30;;;33.30;27.70;;;;;;5063656;28;20441;-89
2022/07/31 14:18:58;;;;;;;3.33;2.70;;;33.40;28.70;;;;;;5052156;28;20438;-86
2022/07/31 14:21:25;;;;;;;2.77;2.57;;;33.40;28.10;;;;;;5050397;28;20725;-89
2022/07/31 14:23:52;;;;;;;3.80;2.63;;;33.40;28.30;;;;;;5051230;28;20460;-89
2022/07/31 14:26:19;;;;;;;9.13;2.80;;;33.20;28.40;;;;;;5047235;28;20569;-86
2022/07/31 14:28:46;;;;;;;3.00;2.43;;;33.20;28.50;;;;;;5048637;28;20458;-88
2022/07/31 14:31:16;;;;;;;2.80;2.60;;;33.50;28.20;;;;;;5047853;28;20457;-88
2022/07/31 14:33:43;;;;;;;3.07;2.77;;;33.90;27.50;;;;;;5052304;28;20444;-87
2022/07/31 14:36:13;;;;;;;2.80;2.60;;;34.10;27.30;;;;;;5024190;28;20469;-88